sensor_id;sensor_type;location;lat;lon;timestamp;pressure;altitude;pressure_sealevel;temperature;humidity
27613;BME280;15036;48.094;-1.690;2022-09-21T00:00:49;101937.28;;;19.14;52.61
27613;BME280;15036;48.094;-1.690;2022-09-21T00:03:15;101933.41;;;18.96;52.71
27613;BME280;15036;48.094;-1.690;2022-09-21T00:05:40;101930.59;;;19.03;52.83
27613;BME280;15036;48.094;-1.690;2022-09-21T00:08:07;101931.56;;;19.15;52.31
27613;BME280;15036;48.094;-1.690;2022-09-21T00:10:33;101926.00;;;19.15;52.18
27613;BME280;15036;48.094;-1.690;2022-09-21T00:12:59;101938.03;;;19.02;52.66
27613;BME280;15036;48.094;-1.690;2022-09-21T00:15:28;101924.44;;;19.01;52.56
27613;BME280;15036;48.094;-1.690;2022-09-21T00:17:55;101924.75;;;18.86;52.95
27613;BME280;15036;48.094;-1.690;2022-09-21T00:20:22;101935.44;;;19.08;52.53
27613;BME280;15036;48.094;-1.690;2022-09-21T00:22:49;101927.41;;;18.99;52.36
27613;BME280;15036;48.094;-1.690;2022-09-21T00:25:15;101928.66;;;19.03;52.50
27613;BME280;15036;48.094;-1.690;2022-09-21T00:27:41;101925.78;;;19.17;52.16
27613;BME280;15036;48.094;-1.690;2022-09-21T00:30:07;101939.94;;;19.02;52.36
27613;BME280;15036;48.094;-1.690;2022-09-21T00:32:35;101922.25;;;18.78;52.90
27613;BME280;15036;48.094;-1.690;2022-09-21T00:35:01;101932.13;;;18.99;52.43
27613;BME280;15036;48.094;-1.690;2022-09-21T00:37:29;101921.47;;;18.71;53.24
27613;BME280;15036;48.094;-1.690;2022-09-21T00:39:55;101927.09;;;18.89;52.81
27613;BME280;15036;48.094;-1.690;2022-09-21T00:42:28;101924.88;;;18.98;52.75
27613;BME280;15036;48.094;-1.690;2022-09-21T00:44:54;101927.91;;;18.65;53.38
27613;BME280;15036;48.094;-1.690;2022-09-21T00:49:59;101926.03;;;18.84;52.69
27613;BME280;15036;48.094;-1.690;2022-09-21T00:52:25;101923.34;;;18.77;52.97
27613;BME280;15036;48.094;-1.690;2022-09-21T00:55:20;101920.47;;;18.66;53.16
27613;BME280;15036;48.094;-1.690;2022-09-21T00:57:52;101925.88;;;18.79;53.06
27613;BME280;15036;48.094;-1.690;2022-09-21T01:00:18;101923.00;;;18.67;53.09
27613;BME280;15036;48.094;-1.690;2022-09-21T01:02:44;101923.50;;;18.58;53.42
27613;BME280;15036;48.094;-1.690;2022-09-21T01:05:10;101926.72;;;18.48;53.73
27613;BME280;15036;48.094;-1.690;2022-09-21T01:07:38;101921.47;;;18.71;53.10
27613;BME280;15036;48.094;-1.690;2022-09-21T01:10:10;101922.91;;;18.49;53.30
27613;BME280;15036;48.094;-1.690;2022-09-21T01:12:54;101927.91;;;18.28;54.30
27613;BME280;15036;48.094;-1.690;2022-09-21T01:18:35;101921.03;;;18.43;53.79
27613;BME280;15036;48.094;-1.690;2022-09-21T01:21:24;101922.44;;;18.52;53.36
27613;BME280;15036;48.094;-1.690;2022-09-21T01:24:07;101925.41;;;18.57;53.25
27613;BME280;15036;48.094;-1.690;2022-09-21T01:27:06;101929.16;;;18.32;53.66
27613;BME280;15036;48.094;-1.690;2022-09-21T01:29:43;101925.91;;;18.48;53.37
27613;BME280;15036;48.094;-1.690;2022-09-21T01:32:18;101924.59;;;18.50;53.43
27613;BME280;15036;48.094;-1.690;2022-09-21T01:37:30;101921.47;;;18.34;53.45
27613;BME280;15036;48.094;-1.690;2022-09-21T01:40:00;101920.56;;;18.46;53.28
27613;BME280;15036;48.094;-1.690;2022-09-21T01:42:28;101925.91;;;18.48;53.31
27613;BME280;15036;48.094;-1.690;2022-09-21T01:44:57;101923.03;;;18.23;53.67
27613;BME280;15036;48.094;-1.690;2022-09-21T01:47:25;101920.66;;;18.27;53.78
27613;BME280;15036;48.094;-1.690;2022-09-21T01:49:59;101926.53;;;17.99;54.50
27613;BME280;15036;48.094;-1.690;2022-09-21T01:52:33;101921.38;;;18.15;53.79
27613;BME280;15036;48.094;-1.690;2022-09-21T01:55:16;101930.06;;;18.19;54.29
27613;BME280;15036;48.094;-1.690;2022-09-21T01:57:55;101920.75;;;18.13;53.97
27613;BME280;15036;48.094;-1.690;2022-09-21T02:00:23;101919.03;;;18.12;53.92
27613;BME280;15036;48.094;-1.690;2022-09-21T02:02:50;101911.84;;;18.05;54.12
27613;BME280;15036;48.094;-1.690;2022-09-21T02:05:18;101919.38;;;18.29;53.66
27613;BME280;15036;48.094;-1.690;2022-09-21T02:07:46;101922.47;;;18.08;54.05
27613;BME280;15036;48.094;-1.690;2022-09-21T02:10:17;101913.94;;;18.16;53.88
27613;BME280;15036;48.094;-1.690;2022-09-21T02:12:46;101913.50;;;18.12;54.08
27613;BME280;15036;48.094;-1.690;2022-09-21T02:15:12;101913.72;;;18.11;53.95
27613;BME280;15036;48.094;-1.690;2022-09-21T02:17:50;101917.31;;;18.18;53.88
27613;BME280;15036;48.094;-1.690;2022-09-21T02:20:27;101916.69;;;18.16;53.80
27613;BME280;15036;48.094;-1.690;2022-09-21T02:26:07;101913.44;;;18.26;53.33
27613;BME280;15036;48.094;-1.690;2022-09-21T02:28:44;101913.88;;;18.23;53.83
27613;BME280;15036;48.094;-1.690;2022-09-21T02:31:15;101915.63;;;18.10;53.92
27613;BME280;15036;48.094;-1.690;2022-09-21T02:33:59;101914.19;;;18.01;54.08
27613;BME280;15036;48.094;-1.690;2022-09-21T02:36:52;101919.59;;;17.83;54.61
27613;BME280;15036;48.094;-1.690;2022-09-21T02:39:31;101919.56;;;17.96;54.15
27613;BME280;15036;48.094;-1.690;2022-09-21T02:42:04;101914.03;;;17.90;54.47
27613;BME280;15036;48.094;-1.690;2022-09-21T02:44:37;101908.53;;;17.90;54.30
27613;BME280;15036;48.094;-1.690;2022-09-21T02:48:04;101917.66;;;17.90;54.14
27613;BME280;15036;48.094;-1.690;2022-09-21T02:50:37;101907.88;;;17.94;53.84
27613;BME280;15036;48.094;-1.690;2022-09-21T02:53:06;101912.78;;;17.86;54.04
27613;BME280;15036;48.094;-1.690;2022-09-21T02:55:33;101910.19;;;17.91;54.17
27613;BME280;15036;48.094;-1.690;2022-09-21T02:58:02;101920.69;;;17.76;54.17
27613;BME280;15036;48.094;-1.690;2022-09-21T03:00:29;101912.94;;;18.04;53.58
27613;BME280;15036;48.094;-1.690;2022-09-21T03:02:55;101916.09;;;18.07;53.60
27613;BME280;15036;48.094;-1.690;2022-09-21T03:05:20;101913.56;;;18.06;53.73
27613;BME280;15036;48.094;-1.690;2022-09-21T03:07:46;101912.63;;;18.18;53.50
27613;BME280;15036;48.094;-1.690;2022-09-21T03:10:12;101905.44;;;18.11;53.50
27613;BME280;15036;48.094;-1.690;2022-09-21T03:12:38;101911.78;;;18.18;53.37
27613;BME280;15036;48.094;-1.690;2022-09-21T03:15:04;101910.06;;;18.17;53.41
27613;BME280;15036;48.094;-1.690;2022-09-21T03:17:29;101906.69;;;18.15;53.43
27613;BME280;15036;48.094;-1.690;2022-09-21T03:19:55;101906.03;;;18.19;53.54
27613;BME280;15036;48.094;-1.690;2022-09-21T03:22:21;101906.00;;;18.26;53.19
27613;BME280;15036;48.094;-1.690;2022-09-21T03:24:47;101900.91;;;18.23;53.13
27613;BME280;15036;48.094;-1.690;2022-09-21T03:27:15;101900.91;;;18.23;53.25
27613;BME280;15036;48.094;-1.690;2022-09-21T03:29:41;101899.22;;;18.22;53.12
27613;BME280;15036;48.094;-1.690;2022-09-21T03:32:06;101892.44;;;18.18;53.42
27613;BME280;15036;48.094;-1.690;2022-09-21T03:34:32;101895.69;;;18.46;52.71
27613;BME280;15036;48.094;-1.690;2022-09-21T03:36:59;101891.63;;;18.42;52.84
27613;BME280;15036;48.094;-1.690;2022-09-21T03:39:24;101890.81;;;18.42;52.77
27613;BME280;15036;48.094;-1.690;2022-09-21T03:41:50;101889.94;;;18.48;52.47
27613;BME280;15036;48.094;-1.690;2022-09-21T03:44:15;101888.19;;;18.53;52.20
27613;BME280;15036;48.094;-1.690;2022-09-21T03:46:41;101877.41;;;18.45;52.53
27613;BME280;15036;48.094;-1.690;2022-09-21T03:49:07;101880.75;;;18.54;52.26
27613;BME280;15036;48.094;-1.690;2022-09-21T03:51:32;101873.50;;;18.53;52.00
27613;BME280;15036;48.094;-1.690;2022-09-21T03:53:58;101881.28;;;18.31;52.50
27613;BME280;15036;48.094;-1.690;2022-09-21T03:56:23;101879.00;;;18.28;52.80
27613;BME280;15036;48.094;-1.690;2022-09-21T03:58:49;101877.41;;;18.45;52.32
27613;BME280;15036;48.094;-1.690;2022-09-21T04:01:14;101872.50;;;18.41;52.38
27613;BME280;15036;48.094;-1.690;2022-09-21T04:03:40;101867.19;;;18.46;52.14
27613;BME280;15036;48.094;-1.690;2022-09-21T04:06:09;101874.53;;;18.58;52.20
27613;BME280;15036;48.094;-1.690;2022-09-21T04:08:36;101873.72;;;18.58;51.94
27613;BME280;15036;48.094;-1.690;2022-09-21T04:11:08;101876.31;;;18.46;52.49
27613;BME280;15036;48.094;-1.690;2022-09-21T04:13:33;101873.13;;;18.49;51.82
27613;BME280;15036;48.094;-1.690;2022-09-21T04:15:59;101875.63;;;18.57;51.82
27613;BME280;15036;48.094;-1.690;2022-09-21T04:18:25;101874.25;;;18.66;51.47
27613;BME280;15036;48.094;-1.690;2022-09-21T04:20:50;101874.34;;;18.60;51.87
27613;BME280;15036;48.094;-1.690;2022-09-21T04:23:16;101875.44;;;18.52;52.07
27613;BME280;15036;48.094;-1.690;2022-09-21T04:25:42;101872.38;;;18.60;52.05
27613;BME280;15036;48.094;-1.690;2022-09-21T04:28:07;101878.16;;;18.59;51.70
27613;BME280;15036;48.094;-1.690;2022-09-21T04:30:33;101877.19;;;18.47;52.29
27613;BME280;15036;48.094;-1.690;2022-09-21T04:32:59;101877.81;;;18.49;52.26
27613;BME280;15036;48.094;-1.690;2022-09-21T04:35:24;101872.09;;;18.37;52.35
27613;BME280;15036;48.094;-1.690;2022-09-21T04:37:54;101876.56;;;18.45;52.06
27613;BME280;15036;48.094;-1.690;2022-09-21T04:40:19;101882.31;;;18.43;52.29
27613;BME280;15036;48.094;-1.690;2022-09-21T04:42:50;101879.56;;;18.37;52.34
27613;BME280;15036;48.094;-1.690;2022-09-21T04:45:15;101883.34;;;18.42;52.01
27613;BME280;15036;48.094;-1.690;2022-09-21T04:47:40;101887.44;;;18.33;52.67
27613;BME280;15036;48.094;-1.690;2022-09-21T04:50:06;101881.81;;;18.53;52.03
27613;BME280;15036;48.094;-1.690;2022-09-21T04:52:32;101874.19;;;18.48;52.02
27613;BME280;15036;48.094;-1.690;2022-09-21T04:54:57;101883.09;;;18.50;52.12
27613;BME280;15036;48.094;-1.690;2022-09-21T04:57:23;101877.81;;;18.42;52.18
27613;BME280;15036;48.094;-1.690;2022-09-21T04:59:49;101879.31;;;18.38;52.40
27613;BME280;15036;48.094;-1.690;2022-09-21T05:02:14;101880.56;;;18.42;51.99
27613;BME280;15036;48.094;-1.690;2022-09-21T05:04:39;101884.63;;;18.46;52.45
27613;BME280;15036;48.094;-1.690;2022-09-21T05:07:05;101882.31;;;18.37;52.55
27613;BME280;15036;48.094;-1.690;2022-09-21T05:09:30;101878.50;;;18.38;52.31
27613;BME280;15036;48.094;-1.690;2022-09-21T05:12:14;101878.09;;;18.34;52.26
27613;BME280;15036;48.094;-1.690;2022-09-21T05:14:39;101877.81;;;18.42;52.35
27613;BME280;15036;48.094;-1.690;2022-09-21T05:17:05;101882.31;;;18.43;52.36
27613;BME280;15036;48.094;-1.690;2022-09-21T05:19:30;101883.78;;;18.39;52.45
27613;BME280;15036;48.094;-1.690;2022-09-21T05:21:55;101882.72;;;18.40;52.32
27613;BME280;15036;48.094;-1.690;2022-09-21T05:24:21;101881.66;;;18.41;52.42
27613;BME280;15036;48.094;-1.690;2022-09-21T05:26:46;101883.16;;;18.44;52.48
27613;BME280;15036;48.094;-1.690;2022-09-21T05:29:12;101877.25;;;18.34;52.66
27613;BME280;15036;48.094;-1.690;2022-09-21T05:31:50;101885.31;;;18.35;52.44
27613;BME280;15036;48.094;-1.690;2022-09-21T05:37:10;101898.47;;;18.40;52.55
27613;BME280;15036;48.094;-1.690;2022-09-21T05:39:39;101896.19;;;18.30;52.64
27613;BME280;15036;48.094;-1.690;2022-09-21T05:42:05;101898.06;;;18.36;52.61
27613;BME280;15036;48.094;-1.690;2022-09-21T05:44:31;101900.66;;;18.31;52.57
27613;BME280;15036;48.094;-1.690;2022-09-21T05:52:35;101902.97;;;18.34;52.41
27613;BME280;15036;48.094;-1.690;2022-09-21T05:57:52;101897.47;;;18.34;52.59
27613;BME280;15036;48.094;-1.690;2022-09-21T06:00:22;101892.97;;;18.33;52.83
27613;BME280;15036;48.094;-1.690;2022-09-21T06:03:06;101907.06;;;18.25;53.02
27613;BME280;15036;48.094;-1.690;2022-09-21T06:05:40;101898.75;;;18.25;52.77
27613;BME280;15036;48.094;-1.690;2022-09-21T06:08:07;101898.13;;;18.23;53.15
27613;BME280;15036;48.094;-1.690;2022-09-21T06:10:33;101900.03;;;18.29;52.72
27613;BME280;15036;48.094;-1.690;2022-09-21T06:12:59;101894.50;;;18.29;52.82
27613;BME280;15036;48.094;-1.690;2022-09-21T06:15:25;101906.81;;;18.33;52.74
27613;BME280;15036;48.094;-1.690;2022-09-21T06:17:50;101902.06;;;18.40;52.52
27613;BME280;15036;48.094;-1.690;2022-09-21T06:20:16;101903.00;;;18.28;52.67
27613;BME280;15036;48.094;-1.690;2022-09-21T06:22:41;101903.88;;;18.28;52.78
27613;BME280;15036;48.094;-1.690;2022-09-21T06:25:06;101898.25;;;18.41;52.47
27613;BME280;15036;48.094;-1.690;2022-09-21T06:27:32;101899.38;;;18.34;52.72
27613;BME280;15036;48.094;-1.690;2022-09-21T06:29:57;101910.91;;;18.24;52.63
27613;BME280;15036;48.094;-1.690;2022-09-21T06:32:22;101907.25;;;18.30;52.69
27613;BME280;15036;48.094;-1.690;2022-09-21T06:34:48;101902.81;;;18.23;52.86
27613;BME280;15036;48.094;-1.690;2022-09-21T06:37:14;101905.13;;;18.32;52.71
27613;BME280;15036;48.094;-1.690;2022-09-21T06:39:39;101906.56;;;18.35;52.31
27613;BME280;15036;48.094;-1.690;2022-09-21T06:42:05;101909.59;;;18.27;52.73
27613;BME280;15036;48.094;-1.690;2022-09-21T06:44:30;101911.72;;;18.31;52.65
27613;BME280;15036;48.094;-1.690;2022-09-21T06:46:55;101904.91;;;18.34;52.73
27613;BME280;15036;48.094;-1.690;2022-09-21T06:49:21;101910.19;;;18.35;52.86
27613;BME280;15036;48.094;-1.690;2022-09-21T06:51:47;101915.13;;;18.27;52.63
27613;BME280;15036;48.094;-1.690;2022-09-21T06:54:12;101907.41;;;18.42;52.41
27613;BME280;15036;48.094;-1.690;2022-09-21T06:56:38;101907.59;;;18.40;52.35
27613;BME280;15036;48.094;-1.690;2022-09-21T06:59:04;101905.75;;;18.34;52.49
27613;BME280;15036;48.094;-1.690;2022-09-21T07:01:29;101910.59;;;18.45;52.16
27613;BME280;15036;48.094;-1.690;2022-09-21T07:03:54;101902.81;;;18.60;51.90
27613;BME280;15036;48.094;-1.690;2022-09-21T07:06:20;101899.88;;;18.55;51.83
27613;BME280;15036;48.094;-1.690;2022-09-21T07:08:46;101904.75;;;18.60;52.01
27613;BME280;15036;48.094;-1.690;2022-09-21T07:11:12;101906.75;;;18.46;52.40
27613;BME280;15036;48.094;-1.690;2022-09-21T07:13:39;101900.06;;;18.60;51.92
27613;BME280;15036;48.094;-1.690;2022-09-21T07:16:05;101900.34;;;18.77;51.55
27613;BME280;15036;48.094;-1.690;2022-09-21T07:18:31;101903.00;;;18.65;51.52
27613;BME280;15036;48.094;-1.690;2022-09-21T07:21:04;101899.63;;;18.63;51.86
27613;BME280;15036;48.094;-1.690;2022-09-21T07:23:30;101904.03;;;18.71;51.76
27613;BME280;15036;48.094;-1.690;2022-09-21T07:26:03;101900.31;;;18.83;51.45
27613;BME280;15036;48.094;-1.690;2022-09-21T07:28:29;101899.84;;;18.86;51.28
27613;BME280;15036;48.094;-1.690;2022-09-21T07:30:56;101902.81;;;18.91;51.02
27613;BME280;15036;48.094;-1.690;2022-09-21T07:33:23;101902.56;;;18.93;51.21
27613;BME280;15036;48.094;-1.690;2022-09-21T07:35:52;101898.31;;;18.90;51.43
27613;BME280;15036;48.094;-1.690;2022-09-21T07:38:18;101903.13;;;19.01;51.20
27613;BME280;15036;48.094;-1.690;2022-09-21T07:40:44;101903.63;;;19.17;50.94
27613;BME280;15036;48.094;-1.690;2022-09-21T07:43:09;101899.34;;;19.21;50.53
27613;BME280;15036;48.094;-1.690;2022-09-21T07:45:35;101903.34;;;19.25;50.33
27613;BME280;15036;48.094;-1.690;2022-09-21T07:48:04;101897.13;;;19.29;50.21
27613;BME280;15036;48.094;-1.690;2022-09-21T07:50:30;101901.44;;;19.25;50.39
27613;BME280;15036;48.094;-1.690;2022-09-21T07:52:58;101898.31;;;19.40;50.08
27613;BME280;15036;48.094;-1.690;2022-09-21T07:55:23;101900.63;;;19.43;49.98
27613;BME280;15036;48.094;-1.690;2022-09-21T07:57:49;101897.38;;;19.46;49.87
27613;BME280;15036;48.094;-1.690;2022-09-21T08:00:33;101900.00;;;19.41;50.11
27613;BME280;15036;48.094;-1.690;2022-09-21T08:02:59;101897.09;;;19.54;49.83
27613;BME280;15036;48.094;-1.690;2022-09-21T08:05:25;101895.72;;;19.63;49.49
27613;BME280;15036;48.094;-1.690;2022-09-21T08:07:54;101897.53;;;19.69;49.67
27613;BME280;15036;48.094;-1.690;2022-09-21T08:10:20;101890.56;;;19.84;48.80
27613;BME280;15036;48.094;-1.690;2022-09-21T08:12:46;101889.00;;;19.88;49.04
27613;BME280;15036;48.094;-1.690;2022-09-21T08:15:12;101887.13;;;20.01;48.64
27613;BME280;15036;48.094;-1.690;2022-09-21T08:17:39;101890.97;;;20.00;48.41
27613;BME280;15036;48.094;-1.690;2022-09-21T08:20:05;101890.91;;;20.06;48.38
27613;BME280;15036;48.094;-1.690;2022-09-21T08:22:31;101894.66;;;20.12;48.52
27613;BME280;15036;48.094;-1.690;2022-09-21T08:24:56;101892.34;;;20.27;48.21
27613;BME280;15036;48.094;-1.690;2022-09-21T08:27:22;101900.41;;;20.28;47.96
27613;BME280;15036;48.094;-1.690;2022-09-21T08:29:50;101906.25;;;20.38;47.76
27613;BME280;15036;48.094;-1.690;2022-09-21T08:32:15;101901.78;;;20.37;47.74
27613;BME280;15036;48.094;-1.690;2022-09-21T08:34:41;101902.69;;;20.49;47.17
27613;BME280;15036;48.094;-1.690;2022-09-21T08:37:06;101901.41;;;20.75;46.26
27613;BME280;15036;48.094;-1.690;2022-09-21T08:39:31;101896.94;;;20.74;46.39
27613;BME280;15036;48.094;-1.690;2022-09-21T08:44:59;101900.38;;;20.88;46.34
27613;BME280;15036;48.094;-1.690;2022-09-21T08:47:44;101902.53;;;20.86;46.43
27613;BME280;15036;48.094;-1.690;2022-09-21T08:50:41;101906.16;;;20.98;45.69
27613;BME280;15036;48.094;-1.690;2022-09-21T08:56:18;101910.69;;;21.10;nan
27613;BME280;15036;48.094;-1.690;2022-09-21T08:58:44;101906.47;;;21.19;44.73
27613;BME280;15036;48.094;-1.690;2022-09-21T09:04:08;101911.16;;;21.30;43.93
27613;BME280;15036;48.094;-1.690;2022-09-21T09:12:39;101916.81;;;21.70;43.17
27613;BME280;15036;48.094;-1.690;2022-09-21T09:20:44;101916.69;;;21.88;41.57
27613;BME280;15036;48.094;-1.690;2022-09-21T09:25:46;101913.03;;;21.99;41.26
27613;BME280;15036;48.094;-1.690;2022-09-21T09:30:42;101916.75;;;22.16;40.98
27613;BME280;15036;48.094;-1.690;2022-09-21T09:33:31;101912.50;;;22.14;40.73
27613;BME280;15036;48.094;-1.690;2022-09-21T09:36:04;101909.00;;;22.18;40.28
27613;BME280;15036;48.094;-1.690;2022-09-21T09:51:56;101914.28;;;22.76;38.61
27613;BME280;15036;48.094;-1.690;2022-09-21T09:54:25;101912.88;;;22.90;37.47
27613;BME280;15036;48.094;-1.690;2022-09-21T09:56:51;101911.44;;;23.04;38.14
27613;BME280;15036;48.094;-1.690;2022-09-21T10:02:00;101905.78;;;22.83;38.24
27613;BME280;15036;48.094;-1.690;2022-09-21T10:04:27;101909.91;;;22.97;37.53
27613;BME280;15036;48.094;-1.690;2022-09-21T10:06:52;101912.34;;;23.10;37.75
27613;BME280;15036;48.094;-1.690;2022-09-21T10:11:43;101912.13;;;23.11;37.72
27613;BME280;15036;48.094;-1.690;2022-09-21T10:14:11;101909.66;;;23.15;37.41
27613;BME280;15036;48.094;-1.690;2022-09-21T10:16:40;101902.56;;;23.24;37.77
27613;BME280;15036;48.094;-1.690;2022-09-21T10:19:14;101910.69;;;23.09;37.33
27613;BME280;15036;48.094;-1.690;2022-09-21T10:21:42;101903.75;;;23.28;36.75
27613;BME280;15036;48.094;-1.690;2022-09-21T10:24:37;101898.53;;;23.32;36.31
27613;BME280;15036;48.094;-1.690;2022-09-21T10:27:13;101895.97;;;23.47;35.51
27613;BME280;15036;48.094;-1.690;2022-09-21T10:29:45;101901.13;;;23.55;35.54
27613;BME280;15036;48.094;-1.690;2022-09-21T10:34:36;101889.06;;;23.71;35.80
27613;BME280;15036;48.094;-1.690;2022-09-21T10:37:24;101888.38;;;23.42;35.04
27613;BME280;15036;48.094;-1.690;2022-09-21T10:39:50;101883.16;;;23.29;35.26
27613;BME280;15036;48.094;-1.690;2022-09-21T10:42:17;101882.69;;;23.75;35.34
27613;BME280;15036;48.094;-1.690;2022-09-21T10:44:49;101874.00;;;23.93;34.48
27613;BME280;15036;48.094;-1.690;2022-09-21T10:47:34;101871.69;;;23.85;34.51
27613;BME280;15036;48.094;-1.690;2022-09-21T10:50:05;101873.97;;;23.88;33.98
27613;BME280;15036;48.094;-1.690;2022-09-21T10:52:38;101869.91;;;24.01;34.33
27613;BME280;15036;48.094;-1.690;2022-09-21T10:55:06;101865.53;;;24.05;33.84
27613;BME280;15036;48.094;-1.690;2022-09-21T10:57:40;101868.44;;;24.15;34.29
27613;BME280;15036;48.094;-1.690;2022-09-21T11:02:54;101869.59;;;24.19;33.89
27613;BME280;15036;48.094;-1.690;2022-09-21T11:05:27;101853.66;;;24.41;33.33
27613;BME280;15036;48.094;-1.690;2022-09-21T11:08:13;101842.09;;;24.59;33.31
27613;BME280;15036;48.094;-1.690;2022-09-21T11:11:07;101848.78;;;24.58;33.24
27613;BME280;15036;48.094;-1.690;2022-09-21T11:13:46;101844.53;;;24.51;33.48
27613;BME280;15036;48.094;-1.690;2022-09-21T11:18:57;101840.97;;;24.60;33.68
27613;BME280;15036;48.094;-1.690;2022-09-21T11:21:42;101849.16;;;24.99;33.16
27613;BME280;15036;48.094;-1.690;2022-09-21T11:24:31;101832.69;;;24.70;32.89
27613;BME280;15036;48.094;-1.690;2022-09-21T11:27:07;101829.75;;;24.82;33.11
27613;BME280;15036;48.094;-1.690;2022-09-21T11:30:00;101833.59;;;25.08;32.61
27613;BME280;15036;48.094;-1.690;2022-09-21T11:47:19;101815.47;;;25.57;30.93
27613;BME280;15036;48.094;-1.690;2022-09-21T12:05:40;101793.56;;;26.16;30.40
27613;BME280;15036;48.094;-1.690;2022-09-21T12:11:34;101784.91;;;26.37;29.71
27613;BME280;15036;48.094;-1.690;2022-09-21T12:14:30;101788.53;;;26.28;29.64
27613;BME280;15036;48.094;-1.690;2022-09-21T12:22:44;101779.31;;;26.57;29.49
27613;BME280;15036;48.094;-1.690;2022-09-21T12:25:20;101772.31;;;26.70;29.31
27613;BME280;15036;48.094;-1.690;2022-09-21T12:27:57;101771.19;;;26.86;29.04
27613;BME280;15036;48.094;-1.690;2022-09-21T12:30:27;101768.97;;;26.68;29.02
27613;BME280;15036;48.094;-1.690;2022-09-21T12:33:19;101772.25;;;27.10;28.92
27613;BME280;15036;48.094;-1.690;2022-09-21T12:35:57;101774.16;;;27.40;28.70
27613;BME280;15036;48.094;-1.690;2022-09-21T12:38:30;101766.00;;;27.49;27.97
27613;BME280;15036;48.094;-1.690;2022-09-21T12:41:05;101773.59;;;27.38;28.73
27613;BME280;15036;48.094;-1.690;2022-09-21T12:43:38;101762.59;;;27.52;28.12
27613;BME280;15036;48.094;-1.690;2022-09-21T12:46:14;101766.03;;;27.97;27.40
27613;BME280;15036;48.094;-1.690;2022-09-21T12:48:42;101758.91;;;28.15;27.66
27613;BME280;15036;48.094;-1.690;2022-09-21T12:51:26;101760.31;;;28.51;26.79
27613;BME280;15036;48.094;-1.690;2022-09-21T12:53:59;101753.13;;;29.26;25.61
27613;BME280;15036;48.094;-1.690;2022-09-21T12:56:44;101751.06;;;30.35;24.56
27613;BME280;15036;48.094;-1.690;2022-09-21T12:59:36;101750.41;;;30.89;24.07
27613;BME280;15036;48.094;-1.690;2022-09-21T13:12:44;101723.72;;;32.03;22.57
27613;BME280;15036;48.094;-1.690;2022-09-21T13:15:27;101730.78;;;30.84;22.87
27613;BME280;15036;48.094;-1.690;2022-09-21T13:18:04;101723.47;;;31.64;22.23
27613;BME280;15036;48.094;-1.690;2022-09-21T13:20:35;101728.47;;;31.94;22.29
27613;BME280;15036;48.094;-1.690;2022-09-21T13:23:03;101719.56;;;31.74;21.90
27613;BME280;15036;48.094;-1.690;2022-09-21T13:25:30;101714.41;;;31.89;21.83
27613;BME280;15036;48.094;-1.690;2022-09-21T13:30:49;101707.28;;;32.72;21.47
27613;BME280;15036;48.094;-1.690;2022-09-21T13:33:37;101711.22;;;32.18;21.08
27613;BME280;15036;48.094;-1.690;2022-09-21T13:36:32;101706.41;;;32.93;20.93
27613;BME280;15036;48.094;-1.690;2022-09-21T13:39:14;101709.06;;;33.29;20.65
27613;BME280;15036;48.094;-1.690;2022-09-21T13:41:39;101705.69;;;33.75;20.64
27613;BME280;15036;48.094;-1.690;2022-09-21T13:44:35;101701.34;;;33.69;20.06
27613;BME280;15036;48.094;-1.690;2022-09-21T13:47:01;101703.22;;;34.25;19.81
27613;BME280;15036;48.094;-1.690;2022-09-21T13:49:31;101705.66;;;34.69;19.96
27613;BME280;15036;48.094;-1.690;2022-09-21T13:52:22;101689.09;;;34.79;18.50
27613;BME280;15036;48.094;-1.690;2022-09-21T13:55:02;101696.16;;;34.65;19.32
27613;BME280;15036;48.094;-1.690;2022-09-21T13:57:38;101694.44;;;34.98;18.40
27613;BME280;15036;48.094;-1.690;2022-09-21T14:00:29;101685.06;;;34.00;19.11
27613;BME280;15036;48.094;-1.690;2022-09-21T14:02:58;101682.88;;;34.23;19.49
27613;BME280;15036;48.094;-1.690;2022-09-21T14:05:40;101682.22;;;34.08;19.54
27613;BME280;15036;48.094;-1.690;2022-09-21T14:10:40;101672.38;;;34.86;19.19
27613;BME280;15036;48.094;-1.690;2022-09-21T14:14:05;101673.03;;;34.20;19.14
27613;BME280;15036;48.094;-1.690;2022-09-21T14:16:49;101669.38;;;34.02;19.03
27613;BME280;15036;48.094;-1.690;2022-09-21T14:24:41;101660.84;;;33.94;19.27
27613;BME280;15036;48.094;-1.690;2022-09-21T14:27:21;101663.53;;;33.73;19.29
27613;BME280;15036;48.094;-1.690;2022-09-21T14:32:32;101654.19;;;34.87;19.11
27613;BME280;15036;48.094;-1.690;2022-09-21T14:35:06;101653.84;;;34.98;18.92
27613;BME280;15036;48.094;-1.690;2022-09-21T14:37:45;101649.56;;;35.12;18.76
27613;BME280;15036;48.094;-1.690;2022-09-21T14:40:20;101653.69;;;35.23;18.45
27613;BME280;15036;48.094;-1.690;2022-09-21T14:42:49;101647.66;;;35.25;18.81
27613;BME280;15036;48.094;-1.690;2022-09-21T14:45:17;101644.53;;;35.47;18.79
27613;BME280;15036;48.094;-1.690;2022-09-21T14:47:46;101646.03;;;35.44;18.76
27613;BME280;15036;48.094;-1.690;2022-09-21T14:50:27;101643.53;;;35.51;19.06
27613;BME280;15036;48.094;-1.690;2022-09-21T14:55:34;101653.47;;;34.53;19.20
27613;BME280;15036;48.094;-1.690;2022-09-21T15:00:46;101647.19;;;34.85;19.53
27613;BME280;15036;48.094;-1.690;2022-09-21T15:06:33;101634.97;;;35.72;18.81
27613;BME280;15036;48.094;-1.690;2022-09-21T15:15:22;101634.63;;;35.53;18.77
27613;BME280;15036;48.094;-1.690;2022-09-21T15:17:53;101635.63;;;35.28;18.68
27613;BME280;15036;48.094;-1.690;2022-09-21T15:20:21;101615.94;;;34.85;19.43
27613;BME280;15036;48.094;-1.690;2022-09-21T15:22:53;101623.09;;;35.00;19.02
27613;BME280;15036;48.094;-1.690;2022-09-21T15:25:19;101613.44;;;34.92;18.64
27613;BME280;15036;48.094;-1.690;2022-09-21T15:27:45;101615.44;;;34.91;19.06
27613;BME280;15036;48.094;-1.690;2022-09-21T15:30:26;101613.59;;;35.25;18.93
27613;BME280;15036;48.094;-1.690;2022-09-21T15:32:58;101610.38;;;35.26;18.99